• Join FlightAware (Why Join?)
  • Login
  • US Flag 
09:18AM EDT


 

Airport Tracker/Info


-or-


 

Live Flight TrackerFlight Track Log ✈ N6510V ✈ 24-Jul-2014 ✈ KEQY - KGAO

Flight Track Log - Related Links

Times and Time Zones

All times are in EDT time to prevent confusion due to time zone crossing. See the N6510V flight status page for this flight to view local times or setup timezone preferences in your user account.

Time Position Orientation Groundspeed Altitude Reporting Facility
EDT Latitude Longitude Course Direction KTS MPH feet Rate Location/Type
02:37PM 34.9547 -80.6861 223° Southwest 132 152 2,600  Level Atlanta Center
02:37PM 34.9386 -80.7044 223° Southwest 131 151 3,000 720 Climbing Atlanta Center
02:38PM 34.9228 -80.7353 238° Southwest 115 132 3,800 780 Climbing Atlanta Center
02:39PM 34.9047 -80.7692 237° Southwest 107 123 4,600 540 Climbing Atlanta Center
02:40PM 34.8786 -80.8056 229° Southwest 129 148 5,000 420 Climbing Atlanta Center
02:41PM 34.8547 -80.8469 235° Southwest 140 161 5,600 600 Climbing Atlanta Center
02:43PM 34.8325 -80.8808 231° Southwest 125 144 6,300 660 Climbing Atlanta Center
02:43PM 34.8061 -80.9019 213° Southwest 121 139 7,000 660 Climbing Atlanta Center
02:44PM 34.7792 -80.9131 199° South 116 133 7,600 660 Climbing Atlanta Center
02:45PM 34.7419 -80.9244 194° South 116 133 8,400 660 Climbing Atlanta Center
02:46PM 34.7128 -80.9308 190° South 112 129 9,100 540 Climbing Atlanta Center
02:47PM 34.6906 -80.9517 218° Southwest 97 112 9,600 420 Climbing Atlanta Center
02:49PM 34.6789 -80.9925 252° West 108 124 10,100 180 Climbing Atlanta Center
02:50PM 34.6611 -81.0286 239° Southwest 136 157 10,100 -60 Level Atlanta Center
02:51PM 34.6456 -81.0744 248° West 155 178 10,000 -60 Descending Atlanta Center
02:52PM 34.6278 -81.1181 244° Southwest 151 174 10,000  Level Atlanta Center
02:53PM 34.6100 -81.1642 245° Southwest 151 174 10,000  Level Atlanta Center
03:01PM 34.4003 -81.4936 226° Southwest 170 196 10,500 120 Climbing Atlanta Center
03:02PM 34.4053 -81.5524 243° Southwest  Level FlightAware Approximate
03:02PM 34.3842 -81.5242 237° Southwest 141 162 11,300  Level Atlanta Center
03:03PM 34.3859 -81.5983 243° Southwest  Level FlightAware Approximate
03:03PM 34.3722 -81.5497 240° Southwest 119 137 11,800  Level Atlanta Center
03:04PM 34.3569 -81.6352 226° Southwest  Level FlightAware Approximate
03:04PM 34.3539 -81.5806 234° Southwest 111 128 12,000  Level Atlanta Center
03:05PM 34.3279 -81.6721 226° Southwest  Level FlightAware Approximate
03:05PM 34.3361 -81.6186 241° Southwest 118 136 12,000  Level Atlanta Center
03:06PM 34.2989 -81.7090 226° Southwest  Level FlightAware Approximate
03:06PM 34.3139 -81.6597 237° Southwest 132 152 12,000  Level Atlanta Center
03:07PM 34.2897 -81.7006 234° Southwest 148 170 12,000  Level Atlanta Center
03:08PM 34.2675 -81.7439 238° Southwest 148 170 12,000  Level Atlanta Center
03:09PM 34.2472 -81.7847 239° Southwest 148 170 12,000  Level Atlanta Center
03:10PM 34.2208 -81.8256 232° Southwest 148 170 12,000  Level Atlanta Center
03:11PM 34.1989 -81.8689 239° Southwest 148 170 12,000  Level Atlanta Center
03:12PM 34.1744 -81.9097 234° Southwest 148 170 12,000  Level Atlanta Center
03:13PM 34.1500 -81.9478 232° Southwest 154 177 12,000  Level Atlanta Center
03:14PM 34.1256 -81.9886 234° Southwest 154 177 12,000  Level Atlanta Center
03:15PM 34.1014 -82.0294 234° Southwest 154 177 12,000  Level Atlanta Center
03:16PM 34.0769 -82.0725 236° Southwest 154 177 12,000 -60 Level Atlanta Center
03:17PM 34.0547 -82.1131 237° Southwest 149 171 11,900  Descending Atlanta Center
03:18PM 34.0281 -82.1564 233° Southwest 149 171 12,000  Climbing Atlanta Center
03:19PM 34.0036 -82.1944 232° Southwest 149 171 12,000  Level Atlanta Center
03:20PM 33.9792 -82.2353 234° Southwest 149 171 12,000  Level Atlanta Center
03:21PM 33.9547 -82.2758 234° Southwest 149 171 12,000  Level Atlanta Center
03:22PM 33.9347 -82.3211 242° Southwest 149 171 12,000  Level Atlanta Center
03:23PM 33.8997 -82.3619 224° Southwest 154 177 12,000  Level Atlanta Center
03:24PM 33.8731 -82.4000 230° Southwest 154 177 12,000  Level Atlanta Center
03:25PM 33.8464 -82.4356 228° Southwest 154 177 12,000  Level Atlanta Center
03:26PM 33.8092 -82.4686 216° Southwest 154 177 12,000  Level Atlanta Center
03:27PM 33.7783 -82.5017 222° Southwest 166 191 12,000  Level Atlanta Center
03:28PM 33.7453 -82.5322 218° Southwest 160 184 12,000  Level Atlanta Center
03:29PM 33.7122 -82.5628 218° Southwest 160 184 12,000  Level Atlanta Center
03:30PM 33.6814 -82.5933 220° Southwest 153 176 12,000  Level Atlanta Center
03:31PM 33.6483 -82.6239 218° Southwest 158 182 12,000  Level Atlanta Center
03:32PM 33.6175 -82.6569 222° Southwest 158 182 12,000  Level Atlanta Center
03:33PM 33.5844 -82.6897 220° Southwest 158 182 12,000  Level Atlanta Center
03:34PM 33.5533 -82.7228 222° Southwest 160 184 12,000  Level Atlanta Center
03:35PM 33.5161 -82.7581 218° Southwest 160 184 12,000  Level Atlanta Center
03:36PM 33.4831 -82.7908 220° Southwest 160 184 12,000  Level Atlanta Center
03:37PM 33.4500 -82.8264 222° Southwest 160 184 12,000  Level Atlanta Center
03:38PM 33.4169 -82.8592 220° Southwest 160 184 12,000  Level Atlanta Center
03:39PM 33.3861 -82.8919 222° Southwest 160 184 12,000  Level Atlanta Center
03:40PM 33.3508 -82.9297 222° Southwest 160 184 12,000  Level Atlanta Center
03:41PM 33.3200 -82.9625 222° Southwest 160 184 12,000  Level Atlanta Center
03:42PM 33.2847 -83.0025 223° Southwest 164 189 12,000  Level Atlanta Center
03:43PM 33.2536 -83.0353 221° Southwest 164 189 12,000  Level Atlanta Center
03:44PM 33.2247 -83.0678 223° Southwest 158 182 12,000  Level Atlanta Center
03:45PM 33.1917 -83.1056 224° Southwest 158 182 12,000  Level Atlanta Center
03:46PM 33.1606 -83.1381 221° Southwest 158 182 12,000  Level Atlanta Center
03:47PM 33.1275 -83.1731 222° Southwest 159 183 12,000  Level Atlanta Center
03:48PM 33.1006 -83.2056 225° Southwest 159 183 12,000  Level Atlanta Center
03:49PM 33.0694 -83.2406 223° Southwest 159 183 12,000  Level Atlanta Center
03:50PM 33.0364 -83.2756 222° Southwest 159 183 12,000  Level Atlanta Center
03:51PM 33.0050 -83.3081 221° Southwest 159 183 12,000  Level Atlanta Center
03:52PM 32.9761 -83.3431 225° Southwest 159 183 12,000  Level Atlanta Center
03:53PM 32.9450 -83.3756 221° Southwest 159 183 12,000  Level Atlanta Center
03:54PM 32.9139 -83.4078 221° Southwest 159 183 12,000 -60 Level Atlanta Center
03:55PM 32.8847 -83.4403 223° Southwest 154 177 11,900 -60 Descending Atlanta Center
03:56PM 32.8517 -83.4725 219° Southwest 154 177 11,900  Level Atlanta Center
03:57PM 32.8203 -83.5050 221° Southwest 154 177 11,900  Level Atlanta Center
03:58PM 32.7914 -83.5397 225° Southwest 154 177 11,900  Level Atlanta Center
03:59PM 32.7600 -83.5719 221° Southwest 154 177 11,900  Level Atlanta Center
04:00PM 32.7311 -83.6042 223° Southwest 154 177 11,900  Level Atlanta Center
04:01PM 32.6997 -83.6364 221° Southwest 159 183 11,900  Level Atlanta Center
04:02PM 32.6769 -83.6761 236° Southwest 154 177 11,900  Level Atlanta Center
04:03PM 32.6583 -83.7206 244° Southwest 149 171 11,900  Level Atlanta Center
04:04PM 32.6397 -83.7600 241° Southwest 149 171 11,900  Level Atlanta Center
04:05PM 32.6208 -83.8022 242° Southwest 149 171 11,900  Level Atlanta Center
04:06PM 32.6000 -83.8467 241° Southwest 149 171 11,900  Level Atlanta Center
04:07PM 32.5814 -83.8836 239° Southwest 149 171 11,900  Level Atlanta Center
04:08PM 32.5628 -83.9281 244° Southwest 149 171 11,900  Level Atlanta Center
04:09PM 32.5439 -83.9722 243° Southwest 144 166 11,900  Level Atlanta Center
04:10PM 32.5253 -84.0117 241° Southwest 144 166 11,900  Level Atlanta Center
04:11PM 32.5064 -84.0536 242° Southwest 144 166 11,900  Level Atlanta Center
04:12PM 32.4875 -84.0956 242° Southwest 144 166 11,900  Level Atlanta Center
04:13PM 32.4689 -84.1372 242° Southwest 144 166 11,900  Level Atlanta Center
04:14PM 32.4478 -84.1792 239° Southwest 144 166 11,900  Level Atlanta Center
04:15PM 32.4289 -84.2233 243° Southwest 144 166 11,900  Level Atlanta Center
04:16PM 32.4122 -84.2653 245° Southwest 144 166 11,900  Level Atlanta Center
04:17PM 32.3914 -84.3069 239° Southwest 144 166 11,900  Level Atlanta Center
04:18PM 32.3725 -84.3461 240° Southwest 144 166 11,900  Level Atlanta Center
04:19PM 32.3536 -84.3906 243° Southwest 144 166 11,900  Level Atlanta Center
04:20PM 32.3347 -84.4322 242° Southwest 144 166 11,900  Level Atlanta Center
04:21PM 32.3136 -84.4739 239° Southwest 144 166 11,900  Level Atlanta Center
04:22PM 32.2947 -84.5181 243° Southwest 144 166 11,900  Level Atlanta Center
04:23PM 32.2736 -84.5597 239° Southwest 144 166 11,900  Level Atlanta Center
04:24PM 32.2547 -84.6014 242° Southwest 144 166 12,000  Climbing Atlanta Center
04:25PM 32.2336 -84.6453 240° Southwest 149 171 11,900 -60 Descending Atlanta Center
04:26PM 32.2144 -84.6869 241° Southwest 149 171 11,900  Level Atlanta Center
04:27PM 32.1956 -84.7286 242° Southwest 154 177 11,900  Level Atlanta Center
04:28PM 32.1744 -84.7725 240° Southwest 154 177 11,900  Level Atlanta Center
04:29PM 32.1575 -84.8142 244° Southwest 154 177 11,900  Level Atlanta Center
04:30PM 32.1364 -84.8581 240° Southwest 154 177 11,900  Level Atlanta Center
04:31PM 32.1172 -84.8972 240° Southwest 148 170 11,900  Level Atlanta Center
04:32PM 32.1003 -84.9386 244° Southwest 154 177 11,900  Level Atlanta Center
04:33PM 32.0792 -84.9800 239° Southwest 154 177 11,900  Level Atlanta Center
04:34PM 32.0578 -85.0239 240° Southwest 149 171 11,900  Level Atlanta Center
04:35PM 32.0408 -85.0631 243° Southwest 149 171 11,900  Level Atlanta Center
04:36PM 32.0197 -85.1069 240° Southwest 156 180 11,900  Level Atlanta Center
04:37PM 32.0047 -85.1433 244° Southwest 151 174 12,000  Climbing Atlanta Center
04:38PM 31.9833 -85.1847 239° Southwest 151 174 11,900  Descending Atlanta Center
04:41PM 31.9200 -85.3158 240° Southwest 145 167 12,000  Climbing Jacksonville Center
04:42PM 31.9003 -85.3569 241° Southwest 145 167 12,000  Level Jacksonville Center
04:43PM 31.8828 -85.4003 245° Southwest 150 173 12,000  Level Jacksonville Center
04:44PM 31.8611 -85.4414 238° Southwest 150 173 12,000  Level Jacksonville Center
04:45PM 31.8414 -85.4825 241° Southwest 150 173 12,000  Level Jacksonville Center
04:46PM 31.8261 -85.5186 244° Southwest 155 178 12,000  Level Jacksonville Center
04:47PM 31.8044 -85.5644 241° Southwest 155 178 12,000  Level Jacksonville Center
04:48PM 31.7847 -85.6078 242° Southwest 155 178 12,000  Level Jacksonville Center
04:49PM 31.7650 -85.6464 239° Southwest 155 178 12,000  Level Jacksonville Center
04:50PM 31.7453 -85.6897 242° Southwest 155 178 12,000  Level Jacksonville Center
04:51PM 31.7236 -85.7306 238° Southwest 155 178 12,000  Level Jacksonville Center
04:52PM 31.7036 -85.7739 242° Southwest 155 178 12,000  Level Jacksonville Center
04:53PM 31.6819 -85.8172 240° Southwest 155 178 12,000  Level Jacksonville Center
04:54PM 31.6619 -85.8631 243° Southwest 155 178 12,000  Level Jacksonville Center
04:55PM 31.6422 -85.9086 243° Southwest 155 178 12,000  Level Jacksonville Center
04:56PM 31.6222 -85.9494 240° Southwest 155 178 12,000  Level Jacksonville Center
04:57PM 31.6006 -85.9903 238° Southwest 155 178 12,000  Level Jacksonville Center
04:58PM 31.5828 -86.0336 244° Southwest 155 178 12,000  Level Jacksonville Center
04:59PM 31.5628 -86.0744 240° Southwest 155 178 12,000  Level Jacksonville Center
05:00PM 31.5408 -86.1175 239° Southwest 155 178 12,000  Level Jacksonville Center
05:01PM 31.5211 -86.1583 240° Southwest 155 178 12,000  Level Jacksonville Center
05:02PM 31.5011 -86.2014 241° Southwest 155 178 12,000  Level Jacksonville Center
05:03PM 31.4792 -86.2444 239° Southwest 155 178 12,000  Level Jacksonville Center
05:04PM 31.4594 -86.2850 240° Southwest 155 178 12,000  Level Jacksonville Center
05:05PM 31.4394 -86.3283 242° Southwest 155 178 12,000  Level Jacksonville Center
05:06PM 31.4194 -86.3714 241° Southwest 155 178 12,000  Level Jacksonville Center
05:07PM 31.3994 -86.4144 241° Southwest 155 178 12,000  Level Jacksonville Center
05:08PM 31.3794 -86.4550 240° Southwest 155 178 12,000  Level Jacksonville Center
05:09PM 31.3575 -86.4981 239° Southwest 155 178 12,000  Level Jacksonville Center
05:10PM 31.3375 -86.5408 241° Southwest 155 178 12,000  Level Jacksonville Center
05:11PM 31.3172 -86.5911 245° Southwest 155 178 12,000  Level Jacksonville Center
05:12PM 31.3056 -86.6297 251° West 155 178 12,000  Level Jacksonville Center
05:13PM 31.2997 -86.6831 263° West 155 178 12,000  Level Jacksonville Center
05:14PM 31.2900 -86.7311 257° West 155 178 12,000  Level Jacksonville Center
05:15PM 31.2803 -86.7817 257° West 161 185 12,000  Level Jacksonville Center
05:16PM 31.2683 -86.8275 253° West 161 185 12,000  Level Jacksonville Center
05:17PM 31.2544 -86.8731 250° West 161 185 12,000  Level Jacksonville Center
05:18PM 31.2403 -86.9233 252° West 161 185 12,000  Level Jacksonville Center
05:19PM 31.2242 -86.9689 248° West 161 185 12,000 -60 Level Jacksonville Center
05:20PM 31.2100 -87.0192 252° West 161 185 11,900 -60 Descending Jacksonville Center
05:21PM 31.1817 -87.0544 227° Southwest 155 178 11,900  Level Jacksonville Center
05:22PM 31.1492 -87.0894 223° Southwest 155 178 12,000  Climbing Jacksonville Center
05:23PM 31.1169 -87.1219 221° Southwest 155 178 12,000  Level Jacksonville Center
05:24PM 31.0886 -87.1569 227° Southwest 155 178 12,000  Level Jacksonville Center
05:25PM 31.0603 -87.1944 229° Southwest 160 184 12,000  Level Jacksonville Center
05:26PM 31.0317 -87.2344 230° Southwest 160 184 12,000  Level Jacksonville Center
05:27PM 31.0053 -87.2719 231° Southwest 160 184 12,000  Level Jacksonville Center
05:29PM 30.9547 -87.3453 231° Southwest 160 184 12,100  Climbing Houston Center
05:30PM 30.9350 -87.3900 243° Southwest 159 183 12,100  Level Houston Center
05:31PM 30.9136 -87.4358 241° Southwest 159 183 12,100  Level Houston Center
05:32PM 30.8886 -87.4883 241° Southwest 158 182 12,100  Level Houston Center
05:33PM 30.8664 -87.5333 240° Southwest 159 183 12,100  Level Houston Center
05:34PM 30.8461 -87.5786 242° Southwest 159 183 12,100  Level Houston Center
05:35PM 30.8233 -87.6236 239° Southwest 161 185 12,100 -60 Level Houston Center
05:36PM 30.8011 -87.6675 239° Southwest 160 184 12,000  Descending Houston Center
05:37PM 30.7861 -87.7156 250° West 160 184 12,100  Climbing Houston Center
05:38PM 30.7661 -87.7739 248° West 160 184 12,100  Level Houston Center
05:39PM 30.7497 -87.8231 249° West 161 185 12,100  Level Houston Center
05:40PM 30.7328 -87.8719 248° West 161 185 12,100  Level Houston Center
05:42PM 30.7081 -87.9153 236° Southwest 161 185 12,100  Level Houston Center
05:43PM 30.6853 -87.9606 240° Southwest 162 186 12,100  Level Houston Center
05:44PM 30.6614 -88.0064 239° Southwest 162 186 12,100  Level Houston Center
05:45PM 30.6344 -88.0592 239° Southwest 162 186 12,100  Level Houston Center
05:46PM 30.6106 -88.1036 238° Southwest 162 186 12,100  Level Houston Center
05:47PM 30.5869 -88.1486 239° Southwest 162 186 12,100 -60 Level Houston Center
05:48PM 30.5625 -88.1944 238° Southwest 165 190 12,000 -60 Descending Houston Center
05:49PM 30.5386 -88.2394 238° Southwest 165 190 12,000  Level Houston Center
05:50PM 30.5150 -88.2828 238° Southwest 163 188 12,000  Level Houston Center
05:51PM 30.4867 -88.3375 239° Southwest 163 188 12,000  Level Houston Center
05:52PM 30.4625 -88.3831 238° Southwest 164 189 12,000  Level Houston Center
05:53PM 30.4383 -88.4264 237° Southwest 163 188 12,000  Level Houston Center
05:54PM 30.4158 -88.4711 240° Southwest 163 188 12,000  Level Houston Center
05:55PM 30.3917 -88.5156 238° Southwest 163 188 12,000  Level Houston Center
05:56PM 30.3672 -88.5606 238° Southwest 163 188 12,000  Level Houston Center
05:57PM 30.3389 -88.6139 238° Southwest 163 188 12,100  Climbing Houston Center
05:58PM 30.3117 -88.6564 233° Southwest 164 189 12,100 -60 Level Houston Center
05:59PM 30.2836 -88.6964 231° Southwest 159 183 12,000 -60 Descending Houston Center
06:00PM 30.2531 -88.7383 230° Southwest 169 194 12,000  Level Houston Center
06:01PM 30.2239 -88.7811 232° Southwest 168 193 12,000 -60 Level Houston Center
06:02PM 30.1878 -88.8289 229° Southwest 167 192 11,900 -60 Descending Houston Center
06:03PM 30.1617 -88.8692 233° Southwest 166 191 11,900  Level Houston Center
06:04PM 30.1331 -88.9125 233° Southwest 166 191 11,900  Level Houston Center
06:05PM 30.1069 -88.9547 234° Southwest 166 191 11,900  Level Houston Center
06:06PM 30.0783 -88.9967 232° Southwest 166 191 11,900  Level Houston Center
06:07PM 30.0447 -89.0472 232° Southwest 166 191 11,900  Level Houston Center
06:08PM 30.0181 -89.0894 234° Southwest 164 189 11,900  Level Houston Center
06:09PM 29.9917 -89.1311 234° Southwest 164 189 11,900  Level Houston Center
06:11PM 29.9606 -89.1694 227° Southwest 164 189 11,900  Level Houston Center
06:12PM 29.9297 -89.2086 228° Southwest 164 189 11,900  Level Houston Center
06:13PM 29.9053 -89.2528 237° Southwest 163 188 11,900  Level Houston Center
06:14PM 29.8781 -89.3083 241° Southwest 165 190 11,900 -60 Level Houston Center
06:15PM 29.8569 -89.3553 243° Southwest 165 190 11,800 -60 Descending Houston Center
06:16PM 29.8317 -89.4031 239° Southwest 168 193 11,800 60 Level Houston Center
06:16PM 29.8247 -89.4164 239° Southwest 169 194 11,900 -540 Climbing Houston Center
06:17PM 29.8033 -89.4456 230° Southwest 168 193 11,300 -900 Descending Houston Center
06:17PM 29.7947 -89.4583 232° Southwest 169 194 11,000 -1,200 Descending Houston Center
06:18PM 29.7692 -89.4981 233° Southwest 182 209 10,100 -960 Descending Houston Center
06:19PM 29.7408 -89.5378 231° Southwest 177 204 9,200 -1,020 Descending Houston Center
06:19PM 29.7253 -89.5600 231° Southwest 190 219 8,800 -1,080 Descending Houston Center
06:20PM 29.7036 -89.5922 232° Southwest 187 215 8,200 -720 Descending Houston Center
06:21PM 29.6736 -89.6342 231° Southwest 175 201 7,600 -600 Descending Houston Center
06:22PM 29.6417 -89.6764 229° Southwest 170 196 7,000 -660 Descending Houston Center
06:23PM 29.6075 -89.7203 228° Southwest 177 204 6,200 -780 Descending Houston Center
06:24PM 29.5736 -89.7656 229° Southwest 178 205 5,500 -720 Descending Houston Center
06:24PM 29.5747 -89.7636 57° Northeast 177 204 5,500 -720 Level Houston Center
06:25PM 29.5461 -89.8144 237° Southwest 173 199 4,700 -840 Descending Houston Center
06:26PM 29.5353 -89.8653 256° West 172 198 4,000 -720 Descending Houston Center
06:26PM 29.5297 -89.8733 232° Southwest 183 211 3,900 -660 Descending Houston Center
06:27PM 29.4997 -89.9133 229° Southwest 173 199 3,200 -720 Descending Houston Center
06:27PM 29.4953 -89.9242 245° Southwest 170 196 3,100 -360 Descending Houston Center
06:28PM 29.4714 -89.9589 232° Southwest 163 188 2,900 -120 Descending Houston Center
06:29PM 29.4478 -89.9981 235° Southwest 151 174 2,900  Level Houston Center
06:30PM 29.4236 -90.0319 231° Southwest 152 175 2,900  Level Houston Center
06:31PM 29.3967 -90.0725 233° Southwest 146 168 2,900 -840 Level Houston Center
06:32PM 29.3867 -90.1128 254° West 159 183 1,500 -2,100 Descending Houston Center